Terminal Aerodrome Forecast
Issued by NWS Northern Indiana

Home | Current Version | Previous Version | Text Only | Print | Product List | Glossary On
Versions: 1 2 3 4 5 6 7 8 9 10 11 12 13
392
FTUS43 KIWX 182324
TAFFWA
TAF
KFWA 182324Z 1900/1924 22008KT P6SM FEW250
     FM191400 25010KT P6SM FEW250=

USA.gov is the U.S. government's official web portal to all federal, state and local government web resources and services.